Aérodrome :
LOGIN :

S'inscrire | Disclaimer

   EN    FR    IT 

 










Légende :    VFR   VFR Marginal   IFR   IFR Intensif   IFR Très Intensif
Visi : 
Plafond : 
>= 8 km
>= 3000ft
5 à 8 km
1000 à 3000 ft
1500m à 5 km
500 à 1000 ft
800 à 1500m
200 à 500 ft
< 800m
< 200 ft
Symboles :   Orages  Brouillard  Fortes neiges  Fortes précipitations  Vent > 20 kt
SIGMETs :   Divers  Orages  Givrage  Turbulence  Onde Orograph.  Cendres Volcan.






- Altitude de l'aérodrome : 24 ft
- Code IATA : FAO


LPFR - Faro

DERNIER METAR :
  • 191900Z 26013KT 9999 FEW018 21/19 Q1018

METARs EXPIRÉS :
  • 191830Z 25015KT 9999 FEW018 21/19 Q1018
  • 191800Z 25015KT 9999 FEW018 21/19 Q1018
  • 191730Z 24014KT 9999 FEW018 22/18 Q1018
  • 191700Z 24014KT 9999 FEW018 22/18 Q1018
  • 191630Z 24015KT 9999 FEW018 22/18 Q1018

TAF TAF LPFR
Valide du 19 à 18h jusqu'au 20 à 18h UTC


191700Z 1918/2018 25013KT 9999 FEW020
BECMG 1920/1923 30010KT
BECMG 2000/2003 VRB02KT SCT015
PROB30
TEMPO 2003/2007 BKN008
BECMG 2010/2012 24010KT FEW030
BECMG 2016/2018 31010KT



MET'MAP, la Météo Aéronautique d'un coup d'oeil ! - Copyright ORBIFLY Décembre 2007 - Disclaimer

ORBIFLY MET'MAP TEAM :

Programmation & Développement : Alexandra Zaïnal
Sur une idée originale de : Baudouin d'Aumeries
Assistance à la programmation : Marc-Olivier Méhu
Soutien technique & logistique : Manuel Goepfert

Contact : metmap@orbifly.com




SOURCES & CREDITS :

   NOAA